Marion, IL (62959)

7:20 AM CST on February 01, 2015 (GMT -0600)
WB0VTM - HAM RADIO | Change Station
CLOSE
Current Station
Personal Weather Station
Location: Marion, IL
Elevation: 492 ft
Nearby Weather Stations

Elev 492 ft 37.72 °N, 88.95 °W | Updated 13 minutes ago

Rain
Rain
41.2 °F
Feels Like 39 °F
N
4.2
Wind Variable Wind from South

Today
High -- | Low -- °F
--% Chance of Precip.
Yesterday
High -- | Low -- °F
Precip. -- in
6:59 AM 5:19 PM
Waxing Gibbous, 95% visible
Pressure 29.82 in
Visibility 5.0 miles
Clouds Mostly Cloudy 2700 ft
Overcast 3300 ft
Windchill 39 °F
Dew Point 41 °F
Humidity 99%
Rainfall 0.06 in
Snow Depth Not available.
UV 0 out of 12
Pollen .30 out of 12
Air Quality Not available.
Flu Activity Not available.
METAR KMWA 011252Z 16010KT 5SM -RA BKN027 OVC033 05/03 A2982

More Conditions Fewer Conditions

Pressure 29.82 in
Visibility 5.0 miles
Clouds Mostly Cloudy 2700 ft
Overcast 3300 ft
Windchill 39 °F
Dew Point 41 °F
Humidity 99%
Rainfall 0.06 in
Snow Depth Not available.
UV 0 out of 12
Pollen .30 out of 12
Air Quality Not available.
Flu Activity Not available.
METAR KMWA 011252Z 16010KT 5SM -RA BKN027 OVC033 05/03 A2982

More Conditions Fewer Conditions

10-Day Weather Forecast

Almanac

Astronomy

Feb. 01, 2015 Rise Set
Actual Time
Civil Twilight
Nautical Twilight
Astronomical Twilight
Moon
Length of Visible Light
Length of Day
Tomorrow will be .
, % of the Moon is Illuminated

Today's Extremes

State Highs State Lows

Community

WunderPhotos

Upload Photos

1,792,359 photos uploaded!

WunderBlogs® & News

Nearby

Air Quality

  Air Quality AQ Index Pollutant
Not available.

Snow Depth

Station Depth Elevation

Earthquake Activity

City Distance Mag. Time & Date
Minimum magnitude displayed is 2.5.

Coastal Water Temperatures

Place Temperature

Nearby Weather Stations